createdAt,value
2022-07-29T03:42:49.838Z,4.40
2022-07-29T03:46:02.061Z,4.40
2022-07-29T03:51:01.926Z,4.10
2022-07-29T03:53:36.204Z,3.60
2022-07-29T03:56:05.615Z,4.00
2022-07-29T03:58:34.382Z,3.50
2022-07-29T04:01:03.294Z,3.50
2022-07-29T04:03:32.023Z,3.80
2022-07-29T04:06:02.309Z,2.90
2022-07-29T04:08:30.872Z,3.10
2022-07-29T04:10:59.413Z,3.70
2022-07-29T04:13:28.139Z,3.30
2022-07-29T04:15:56.722Z,3.40
2022-07-29T04:18:25.792Z,3.70
2022-07-29T04:20:54.093Z,4.00
2022-07-29T04:23:22.509Z,3.20
2022-07-29T04:25:50.820Z,3.30
2022-07-29T04:28:19.097Z,3.20
2022-07-29T04:30:47.444Z,3.00
2022-07-29T04:33:16.228Z,3.30
2022-07-29T04:35:49.954Z,3.10
2022-07-29T04:38:20.944Z,5.90
2022-07-29T04:40:49.806Z,4.70
2022-07-29T04:43:21.244Z,5.20
2022-07-29T04:45:51.792Z,3.80
2022-07-29T04:48:22.930Z,3.50
2022-07-29T04:50:55.169Z,3.30
2022-07-29T04:53:23.921Z,3.50
2022-07-29T04:55:52.331Z,3.20
2022-07-29T04:58:21.136Z,3.10
2022-07-29T05:00:49.378Z,3.10
2022-07-29T05:03:17.882Z,3.30
2022-07-29T05:05:46.529Z,2.70
2022-07-29T05:08:14.879Z,2.90
2022-07-29T05:10:44.061Z,2.70
2022-07-29T05:13:12.749Z,2.60
2022-07-29T05:15:41.166Z,2.70
2022-07-29T05:18:09.405Z,2.70
2022-07-29T05:20:38.371Z,2.50
2022-07-29T05:23:06.720Z,2.80
2022-07-29T05:25:40.844Z,2.60
2022-07-29T05:28:13.479Z,2.60
2022-07-29T05:30:42.139Z,3.10
2022-07-29T05:33:36.046Z,2.50
2022-07-29T05:36:00.938Z,2.80
2022-07-29T05:38:30.050Z,2.70
2022-07-29T05:41:00.450Z,2.80
2022-07-29T05:43:29.675Z,2.60
2022-07-29T05:45:58.267Z,2.90
2022-07-29T05:48:27.651Z,3.10
2022-07-29T05:50:56.410Z,3.50
2022-07-29T05:53:24.813Z,3.10
2022-07-29T05:55:53.608Z,2.70
2022-07-29T05:58:22.223Z,3.20
2022-07-29T06:00:50.542Z,4.50
2022-07-29T06:03:19.000Z,3.50
2022-07-29T06:05:47.418Z,2.50
2022-07-29T06:08:15.687Z,2.40
2022-07-29T06:10:44.734Z,2.10
2022-07-29T06:13:13.832Z,2.30
2022-07-29T06:15:42.140Z,2.00
2022-07-29T06:18:14.322Z,2.20
2022-07-29T06:20:42.866Z,2.20
2022-07-29T06:23:12.530Z,2.20
2022-07-29T06:25:41.756Z,2.10
2022-07-29T06:28:10.480Z,2.00
2022-07-29T06:30:39.663Z,2.10
2022-07-29T06:33:07.936Z,2.60
2022-07-29T06:35:42.426Z,2.20
2022-07-29T06:38:31.742Z,2.00
2022-07-29T06:41:03.530Z,1.70
2022-07-29T06:43:50.178Z,1.90
2022-07-29T06:46:22.093Z,1.70
2022-07-29T06:48:51.894Z,1.70
2022-07-29T06:51:23.200Z,1.70
2022-07-29T06:53:59.931Z,1.60
2022-07-29T06:56:43.533Z,1.50
2022-07-29T06:59:13.444Z,2.20
2022-07-29T07:01:43.549Z,1.80
2022-07-29T07:04:12.739Z,1.80
2022-07-29T07:06:41.456Z,1.70
2022-07-29T07:09:09.736Z,1.60
2022-07-29T07:11:38.057Z,1.50
2022-07-29T07:14:06.439Z,2.00
2022-07-29T07:16:34.742Z,1.50
2022-07-29T07:19:03.187Z,1.70
2022-07-29T07:21:31.795Z,1.50
2022-07-29T07:24:01.027Z,1.50
2022-07-29T07:26:29.902Z,1.70
2022-07-29T07:28:59.013Z,1.60
2022-07-29T07:31:27.291Z,1.30
2022-07-29T07:33:55.840Z,1.40
2022-07-29T07:36:24.422Z,1.40
2022-07-29T07:38:52.752Z,1.40
2022-07-29T07:41:22.151Z,1.30
2022-07-29T07:43:50.626Z,1.80
2022-07-29T07:46:18.965Z,1.30
2022-07-29T07:48:47.342Z,1.50
2022-07-29T07:51:15.675Z,1.30
2022-07-29T07:53:45.743Z,1.30
2022-07-29T07:56:14.222Z,1.10
2022-07-29T07:58:42.640Z,1.40
2022-07-29T08:01:11.372Z,1.50
2022-07-29T08:03:39.991Z,1.20
2022-07-29T08:06:09.053Z,1.60
2022-07-29T08:08:37.290Z,1.30
2022-07-29T08:11:09.536Z,1.50
2022-07-29T08:13:39.120Z,1.60
2022-07-29T08:16:16.424Z,1.40
2022-07-29T08:18:47.770Z,1.50
2022-07-29T08:21:16.779Z,1.20
2022-07-29T08:23:52.797Z,1.50
2022-07-29T08:26:26.308Z,1.80
2022-07-29T08:28:55.418Z,1.50
2022-07-29T08:31:23.653Z,1.40
2022-07-29T08:33:52.103Z,1.60
2022-07-29T08:36:22.212Z,1.30
2022-07-29T08:38:50.723Z,1.20
2022-07-29T08:41:20.436Z,1.50
2022-07-29T08:43:49.878Z,1.80
2022-07-29T08:46:18.492Z,1.70
2022-07-29T08:48:49.162Z,1.30
2022-07-29T08:53:50.053Z,2.30
2022-07-29T08:56:20.532Z,1.30
2022-07-29T08:58:52.231Z,1.30
2022-07-29T09:01:36.321Z,1.60
2022-07-29T09:04:10.064Z,1.10
2022-07-29T09:06:42.283Z,1.40
2022-07-29T09:09:10.925Z,1.50
2022-07-29T09:11:39.670Z,1.60
2022-07-29T09:14:08.865Z,1.30
2022-07-29T09:16:53.053Z,1.40
2022-07-29T09:19:30.544Z,1.60
2022-07-29T09:22:03.107Z,1.60
2022-07-29T09:24:45.481Z,1.30
2022-07-29T09:27:21.145Z,1.50
2022-07-29T09:30:06.447Z,1.40
2022-07-29T09:32:56.219Z,1.60
2022-07-29T09:35:26.293Z,1.50
2022-07-29T09:37:55.178Z,1.50
2022-07-29T09:40:29.026Z,1.50
2022-07-29T09:42:58.421Z,1.70
2022-07-29T09:45:35.009Z,1.50
2022-07-29T09:48:18.435Z,1.50
2022-07-29T09:50:49.595Z,1.70
2022-07-29T09:53:39.417Z,1.40
2022-07-29T09:56:07.714Z,1.70
2022-07-29T09:58:36.175Z,1.50
2022-07-29T10:01:05.133Z,1.30
2022-07-29T10:03:33.886Z,1.60
2022-07-29T10:06:07.465Z,1.40
2022-07-29T10:08:36.273Z,2.20
2022-07-29T10:11:15.921Z,1.40
2022-07-29T10:13:47.102Z,1.60
2022-07-29T10:16:16.724Z,1.50
2022-07-29T10:18:45.859Z,1.50
2022-07-29T10:21:22.661Z,1.60
2022-07-29T10:24:05.642Z,2.20
2022-07-29T10:26:34.343Z,1.70
2022-07-29T10:29:04.021Z,1.50
2022-07-29T10:31:50.056Z,1.60
2022-07-29T10:34:23.895Z,1.70
2022-07-29T10:37:19.736Z,1.60
2022-07-29T10:40:01.667Z,1.30
2022-07-29T10:42:34.348Z,1.60
2022-07-29T10:45:05.187Z,1.80
2022-07-29T10:50:07.321Z,1.50
2022-07-29T10:52:51.279Z,2.30
2022-07-29T10:55:48.246Z,1.70
2022-07-29T10:58:27.365Z,1.60
2022-07-29T11:00:56.378Z,2.40
2022-07-29T11:03:57.177Z,2.40
2022-07-29T11:06:28.216Z,1.90
2022-07-29T11:09:34.970Z,1.70
2022-07-29T11:12:38.748Z,1.80
2022-07-29T11:15:09.960Z,1.80
2022-07-29T11:20:33.391Z,1.80
2022-07-29T11:23:02.165Z,2.00
2022-07-29T11:31:12.440Z,2.00
2022-07-29T11:33:55.871Z,2.00
2022-07-29T11:36:27.936Z,1.90
2022-07-29T11:39:36.336Z,1.80
2022-07-29T11:42:17.801Z,2.00
2022-07-29T11:45:42.593Z,2.00
2022-07-29T11:48:28.541Z,2.10
2022-07-29T11:50:59.301Z,1.70
2022-07-29T11:53:29.269Z,2.00
2022-07-29T11:56:02.661Z,1.80
2022-07-29T11:58:33.944Z,2.00
2022-07-29T12:01:04.692Z,2.10
2022-07-29T12:03:36.008Z,1.60
2022-07-29T12:06:18.200Z,1.70
2022-07-29T12:07:03.269Z,1.90
2022-07-29T12:08:47.366Z,2.00
2022-07-29T12:11:21.164Z,2.10
2022-07-29T12:13:51.699Z,2.00
2022-07-29T12:16:25.989Z,2.10
2022-07-29T12:18:59.927Z,2.50
2022-07-29T12:21:29.019Z,1.90
2022-07-29T12:24:03.492Z,1.80
2022-07-29T12:26:37.991Z,1.90
2022-07-29T12:29:15.475Z,2.20
2022-07-29T12:31:45.209Z,1.90
2022-07-29T12:34:16.688Z,1.70
2022-07-29T12:36:45.642Z,1.90
2022-07-29T12:39:14.191Z,1.80
2022-07-29T12:41:42.806Z,1.80
2022-07-29T12:44:12.425Z,2.10
2022-07-29T12:46:40.778Z,2.20
2022-07-29T12:49:09.638Z,2.10
2022-07-29T12:51:40.847Z,2.00
2022-07-29T12:54:16.471Z,2.00
2022-07-29T12:56:46.290Z,2.20
2022-07-29T12:59:20.271Z,2.00
2022-07-29T13:01:50.918Z,2.20
2022-07-29T13:04:27.937Z,2.10
2022-07-29T13:07:04.633Z,2.40
2022-07-29T13:09:44.315Z,2.10
2022-07-29T13:12:16.363Z,2.10
2022-07-29T13:14:47.219Z,1.90
2022-07-29T13:17:18.124Z,1.90
2022-07-29T13:19:51.708Z,2.30
2022-07-29T13:22:24.988Z,1.90
2022-07-29T13:24:55.842Z,2.10
2022-07-29T13:27:27.604Z,2.20
2022-07-29T13:29:58.704Z,2.40
2022-07-29T13:32:29.224Z,2.20
2022-07-29T13:34:59.986Z,2.40
2022-07-29T13:37:30.945Z,1.80
2022-07-29T13:40:04.509Z,2.10
2022-07-29T13:42:33.778Z,1.80
2022-07-29T13:45:03.037Z,2.50
2022-07-29T13:47:33.152Z,2.00
2022-07-29T13:50:02.564Z,1.80
2022-07-29T13:52:31.185Z,2.60
2022-07-29T13:55:00.050Z,2.30
2022-07-29T13:57:28.869Z,2.30
2022-07-29T13:59:58.177Z,2.60
2022-07-29T14:02:26.616Z,2.10
2022-07-29T14:04:58.946Z,3.10
2022-07-29T14:07:27.375Z,2.20
2022-07-29T14:09:55.641Z,2.40
2022-07-29T14:12:24.264Z,2.80
2022-07-29T14:14:52.747Z,2.60
2022-07-29T14:17:21.332Z,2.30
2022-07-29T14:19:50.595Z,2.20
2022-07-29T14:22:20.139Z,2.20
2022-07-29T14:24:53.906Z,2.10
2022-07-29T14:27:37.258Z,2.50
2022-07-29T14:30:07.703Z,2.40
2022-07-29T14:32:36.178Z,2.50
2022-07-29T14:35:05.381Z,2.30
2022-07-29T14:37:39.741Z,2.50
2022-07-29T14:40:11.027Z,2.40
2022-07-29T14:42:39.885Z,2.80
2022-07-29T14:45:10.157Z,2.60
2022-07-29T14:50:11.959Z,2.00
2022-07-29T14:52:40.493Z,2.10
2022-07-29T14:55:19.367Z,2.60
2022-07-29T14:57:49.107Z,2.30
2022-07-29T15:00:18.880Z,2.40
2022-07-29T15:03:01.307Z,2.20
2022-07-29T15:05:32.348Z,2.50
2022-07-29T15:08:00.872Z,2.30
2022-07-29T15:10:29.761Z,2.30
2022-07-29T15:13:00.408Z,2.70
2022-07-29T15:17:57.383Z,2.60
2022-07-29T15:20:26.973Z,3.00
2022-07-29T15:22:59.285Z,3.20
2022-07-29T15:25:28.243Z,2.70
2022-07-29T15:28:01.283Z,3.20
2022-07-29T15:30:34.584Z,2.40
2022-07-29T15:33:04.425Z,2.30
2022-07-29T15:35:33.515Z,2.30
2022-07-29T15:38:09.120Z,2.30
2022-07-29T15:40:44.706Z,2.20
2022-07-29T15:43:13.381Z,2.80
2022-07-29T15:46:03.715Z,1.90
2022-07-29T15:48:32.680Z,2.00
2022-07-29T15:51:01.291Z,2.10
2022-07-29T15:53:29.777Z,2.30
2022-07-29T15:55:58.042Z,2.30
2022-07-29T15:58:26.417Z,2.40
2022-07-29T16:00:54.631Z,2.40
2022-07-29T16:03:23.152Z,2.20
2022-07-29T16:05:51.489Z,2.40
2022-07-29T16:08:20.419Z,2.40
2022-07-29T16:10:49.074Z,2.00
2022-07-29T16:13:18.843Z,2.20
2022-07-29T16:16:02.595Z,2.00
2022-07-29T16:18:31.850Z,3.80
2022-07-29T16:21:00.177Z,2.40
2022-07-29T16:23:28.595Z,2.20
2022-07-29T16:26:00.174Z,2.10
2022-07-29T16:28:30.783Z,3.50
2022-07-29T16:30:59.871Z,2.10
2022-07-29T16:33:28.812Z,2.40
2022-07-29T16:36:18.402Z,2.40
2022-07-29T16:38:47.733Z,2.30
2022-07-29T16:41:16.436Z,2.50
2022-07-29T16:43:47.053Z,2.60
2022-07-29T16:46:18.557Z,2.50
2022-07-29T16:48:48.637Z,2.60
2022-07-29T16:51:16.938Z,2.40
2022-07-29T16:53:45.787Z,2.60
2022-07-29T16:56:19.187Z,2.20
2022-07-29T16:58:47.671Z,3.10
2022-07-29T17:01:17.235Z,2.80
2022-07-29T17:04:04.418Z,2.50
2022-07-29T17:06:35.244Z,2.10
2022-07-29T17:09:06.112Z,2.50
2022-07-29T17:11:52.967Z,2.90
2022-07-29T17:14:25.462Z,2.20
2022-07-29T17:17:01.281Z,2.20
2022-07-29T17:19:33.486Z,2.40
2022-07-29T17:22:10.609Z,2.00
2022-07-29T17:24:43.029Z,2.20
2022-07-29T17:27:11.659Z,2.30
2022-07-29T17:29:40.036Z,2.00
2022-07-29T17:32:09.741Z,1.90
2022-07-29T17:34:42.291Z,2.20
2022-07-29T17:37:12.408Z,2.10
2022-07-29T17:39:42.624Z,1.80
2022-07-29T17:42:13.497Z,1.80
2022-07-29T17:44:42.060Z,2.30
2022-07-29T17:47:16.287Z,2.00
2022-07-29T17:49:46.206Z,1.80
2022-07-29T17:52:14.514Z,2.00
2022-07-29T17:54:42.742Z,1.80
2022-07-29T17:57:11.469Z,1.90
2022-07-29T17:59:39.750Z,2.20
2022-07-29T18:02:10.138Z,1.90
2022-07-29T18:04:38.947Z,1.70
2022-07-29T18:07:07.265Z,1.60
2022-07-29T18:09:38.804Z,1.80
2022-07-29T18:12:07.846Z,1.80
2022-07-29T18:14:36.124Z,1.70
2022-07-29T18:17:04.339Z,1.60
2022-07-29T18:19:32.910Z,1.90
2022-07-29T18:22:04.845Z,1.90
2022-07-29T18:24:35.269Z,1.70
2022-07-29T18:27:03.561Z,1.60
2022-07-29T18:29:32.142Z,2.00
2022-07-29T18:32:01.724Z,2.00
2022-07-29T18:34:30.316Z,1.90
2022-07-29T18:36:58.816Z,1.60
2022-07-29T18:39:27.803Z,1.80
2022-07-29T18:41:56.158Z,1.60
2022-07-29T18:44:24.439Z,1.60
2022-07-29T18:46:53.241Z,1.80
2022-07-29T18:49:23.056Z,1.70
2022-07-29T18:51:52.427Z,2.10
2022-07-29T18:54:21.296Z,1.90
2022-07-29T18:56:49.626Z,1.80
2022-07-29T18:59:20.302Z,1.90
2022-07-29T19:01:49.180Z,2.30
2022-07-29T19:04:18.285Z,2.30
2022-07-29T19:06:46.618Z,2.00
2022-07-29T19:09:15.386Z,1.80
2022-07-29T19:11:43.850Z,2.20
2022-07-29T19:14:12.331Z,2.00
2022-07-29T19:16:40.882Z,1.90
2022-07-29T19:19:09.104Z,2.20
2022-07-29T19:21:37.493Z,1.80
2022-07-29T19:24:11.103Z,2.10
2022-07-29T19:26:46.801Z,2.10
2022-07-29T19:29:16.571Z,1.70
2022-07-29T19:31:49.839Z,2.30
2022-07-29T19:34:19.041Z,2.20
2022-07-29T19:36:47.295Z,2.10
2022-07-29T19:39:15.589Z,2.00
2022-07-29T19:41:44.225Z,2.00
2022-07-29T19:44:12.948Z,1.60
2022-07-29T19:46:41.394Z,2.10
2022-07-29T19:49:10.324Z,1.80
2022-07-29T19:51:38.582Z,1.80
2022-07-29T19:54:07.243Z,2.60
2022-07-29T19:56:42.153Z,2.20
2022-07-29T19:59:10.539Z,2.00
2022-07-29T20:01:39.165Z,2.00
2022-07-29T20:04:07.566Z,2.00
2022-07-29T20:06:35.934Z,2.40
2022-07-29T20:09:06.170Z,1.90
2022-07-29T20:11:38.122Z,2.10
2022-07-29T20:14:06.695Z,2.10
2022-07-29T20:16:34.988Z,2.10
2022-07-29T20:19:04.053Z,2.00
2022-07-29T20:21:34.020Z,2.40
2022-07-29T20:24:04.865Z,2.20
2022-07-29T20:26:33.647Z,2.50
2022-07-29T20:29:05.234Z,1.90
2022-07-29T20:31:33.874Z,2.20
2022-07-29T20:34:02.485Z,2.30
2022-07-29T20:36:31.071Z,2.30
2022-07-29T20:39:02.391Z,2.20
2022-07-29T20:41:30.726Z,2.40
2022-07-29T20:44:00.876Z,1.90
2022-07-29T20:46:29.299Z,1.90
2022-07-29T20:48:57.861Z,2.10
2022-07-29T20:51:26.448Z,2.00
2022-07-29T20:53:54.810Z,2.00
2022-07-29T20:56:23.554Z,2.30
2022-07-29T20:58:51.927Z,2.30
2022-07-29T21:01:20.393Z,2.60
2022-07-29T21:03:48.825Z,2.10
2022-07-29T21:06:17.065Z,2.00
2022-07-29T21:08:45.619Z,1.90
2022-07-29T21:11:13.943Z,2.10
2022-07-29T21:13:44.929Z,2.20
2022-07-29T21:16:14.922Z,2.30
2022-07-29T21:18:46.576Z,2.70
2022-07-29T21:21:16.264Z,2.00
2022-07-29T21:23:46.016Z,2.20
2022-07-29T21:26:14.536Z,2.10
2022-07-29T21:28:43.809Z,2.00
2022-07-29T21:31:14.411Z,1.70
2022-07-29T21:33:45.207Z,1.90
2022-07-29T21:36:47.200Z,1.80
2022-07-29T21:39:07.351Z,1.80
2022-07-29T21:41:36.031Z,2.50
2022-07-29T21:44:04.488Z,2.00
2022-07-29T21:46:32.993Z,1.80
2022-07-29T21:49:01.428Z,2.30
2022-07-29T21:51:32.878Z,1.80
2022-07-29T21:54:01.092Z,2.10
2022-07-29T21:56:30.273Z,1.70
2022-07-29T21:59:00.725Z,2.00
2022-07-29T22:01:29.073Z,1.90
2022-07-29T22:04:07.677Z,1.90
2022-07-29T22:06:36.040Z,1.80
2022-07-29T22:09:04.445Z,2.40
2022-07-29T22:11:32.984Z,1.90
2022-07-29T22:14:01.166Z,1.70
2022-07-29T22:16:32.247Z,1.80
2022-07-29T22:19:01.046Z,1.50
2022-07-29T22:21:30.051Z,1.90
2022-07-29T22:23:58.408Z,1.70
2022-07-29T22:26:27.165Z,2.00
2022-07-29T22:28:55.684Z,1.80
2022-07-29T22:31:24.151Z,1.60
2022-07-29T22:33:53.249Z,1.70
2022-07-29T22:36:21.742Z,1.80
2022-07-29T22:38:51.998Z,2.00
2022-07-29T22:43:48.996Z,1.90
2022-07-29T22:46:17.423Z,1.70
2022-07-29T22:48:46.276Z,1.50
2022-07-29T22:51:14.705Z,1.60
2022-07-29T22:53:43.584Z,1.80
2022-07-29T22:56:16.956Z,1.60
2022-07-29T22:58:45.619Z,1.60
2022-07-29T23:01:14.427Z,1.70
2022-07-29T23:03:51.286Z,1.70
2022-07-29T23:06:20.443Z,1.90
2022-07-29T23:08:48.796Z,1.50
2022-07-29T23:11:17.189Z,1.70
2022-07-29T23:13:46.120Z,1.70
2022-07-29T23:16:26.441Z,1.90
2022-07-29T23:21:23.832Z,1.60
2022-07-29T23:23:53.041Z,1.60
2022-07-29T23:26:21.663Z,1.50
2022-07-29T23:28:49.910Z,1.70
2022-07-29T23:31:19.027Z,2.00
2022-07-29T23:33:48.276Z,1.80
2022-07-29T23:36:16.536Z,1.80
2022-07-29T23:38:46.717Z,1.90
2022-07-29T23:41:15.944Z,1.80
2022-07-29T23:43:44.182Z,2.00
2022-07-29T23:46:12.458Z,2.30
2022-07-29T23:48:43.991Z,1.90
2022-07-29T23:51:12.566Z,1.60
2022-07-29T23:53:53.817Z,1.90
2022-07-29T23:56:23.143Z,1.80
2022-07-29T23:58:51.591Z,2.10
